createdAt,value
2019-05-19T00:02:00.921Z,12.64
2019-05-19T00:06:55.517Z,12.64
2019-05-19T00:11:50.097Z,12.69
2019-05-19T00:16:44.704Z,12.79
2019-05-19T00:21:39.299Z,12.78
2019-05-19T00:26:34.041Z,12.68
2019-05-19T00:31:28.639Z,12.60
2019-05-19T00:36:23.261Z,12.65
2019-05-19T00:41:17.865Z,12.72
2019-05-19T00:46:12.550Z,12.85
2019-05-19T00:51:07.514Z,12.80
2019-05-19T00:56:03.829Z,12.91
2019-05-19T01:00:58.434Z,12.86
2019-05-19T01:05:53.100Z,12.86
2019-05-19T01:10:47.775Z,12.80
2019-05-19T01:15:42.512Z,12.77
2019-05-19T01:20:37.203Z,12.73
2019-05-19T01:25:31.794Z,12.69
2019-05-19T01:30:26.527Z,12.64
2019-05-19T01:35:21.130Z,12.65
2019-05-19T01:40:15.951Z,12.60
2019-05-19T01:45:11.655Z,12.57
2019-05-19T01:50:18.997Z,12.58
2019-05-19T01:55:10.401Z,12.63
2019-05-19T02:00:07.802Z,12.66
2019-05-19T02:05:02.410Z,12.62
2019-05-19T02:09:56.996Z,12.63
2019-05-19T02:14:51.598Z,12.56
2019-05-19T02:19:46.192Z,12.68
2019-05-19T02:24:40.801Z,12.65
2019-05-19T02:29:35.555Z,12.67
2019-05-19T02:34:30.174Z,12.56
2019-05-19T02:39:24.768Z,12.53
2019-05-19T02:44:22.267Z,12.57
2019-05-19T02:49:18.770Z,12.57
2019-05-19T02:54:15.658Z,12.60
2019-05-19T02:59:11.438Z,12.62
2019-05-19T03:04:06.040Z,12.68
2019-05-19T03:09:00.667Z,12.73
2019-05-19T03:13:55.237Z,12.72
2019-05-19T03:18:49.847Z,12.75
2019-05-19T03:23:44.526Z,12.69
2019-05-19T03:28:39.195Z,12.67
2019-05-19T03:33:47.475Z,12.69
2019-05-19T03:38:42.083Z,12.89
2019-05-19T03:43:36.660Z,12.78
2019-05-19T03:48:31.266Z,12.65
2019-05-19T03:53:25.869Z,12.66
2019-05-19T03:58:20.484Z,12.74
2019-05-19T04:03:15.139Z,12.73
2019-05-19T04:08:09.722Z,12.67
2019-05-19T04:13:04.324Z,12.70
2019-05-19T04:17:58.912Z,12.71
2019-05-19T04:22:53.505Z,12.75
2019-05-19T04:27:48.101Z,12.77
2019-05-19T04:32:42.692Z,13.00
2019-05-19T04:37:37.294Z,13.04
2019-05-19T04:42:31.893Z,12.95
2019-05-19T04:47:26.484Z,12.85
2019-05-19T04:52:21.077Z,12.97
2019-05-19T04:57:15.664Z,12.94
2019-05-19T05:02:10.292Z,12.90
2019-05-19T05:07:04.856Z,12.96
2019-05-19T05:11:59.457Z,12.92
2019-05-19T05:16:54.112Z,13.04
2019-05-19T05:21:48.700Z,13.14
2019-05-19T05:26:43.287Z,13.33
2019-05-19T05:31:37.885Z,13.47
2019-05-19T05:36:32.476Z,13.65
2019-05-19T05:41:27.063Z,13.74
2019-05-19T05:46:21.651Z,13.82
2019-05-19T05:51:16.240Z,13.95
2019-05-19T05:56:10.836Z,14.04
2019-05-19T06:01:05.436Z,14.18
2019-05-19T06:06:00.019Z,14.29
2019-05-19T06:10:54.607Z,14.41
2019-05-19T06:15:49.478Z,14.45
2019-05-19T06:20:44.132Z,14.62
2019-05-19T06:25:38.792Z,14.66
2019-05-19T06:30:33.414Z,14.81
2019-05-19T06:35:28.053Z,15.01
2019-05-19T06:40:22.706Z,15.06
2019-05-19T06:45:18.530Z,15.07
2019-05-19T06:50:15.329Z,15.00
2019-05-19T06:55:11.024Z,15.03
2019-05-19T07:00:07.797Z,15.02
2019-05-19T07:05:02.423Z,15.01
2019-05-19T07:09:58.811Z,15.11
2019-05-19T07:14:53.379Z,15.48
2019-05-19T07:19:48.021Z,15.87
2019-05-19T07:24:42.619Z,15.98
2019-05-19T07:29:37.210Z,16.28
2019-05-19T07:34:32.042Z,16.34
2019-05-19T07:39:26.998Z,16.68
2019-05-19T07:44:21.573Z,17.10
2019-05-19T07:49:16.145Z,17.22
2019-05-19T07:54:10.743Z,17.68
2019-05-19T07:59:07.874Z,17.85
2019-05-19T08:04:01.708Z,18.12
2019-05-19T08:08:56.285Z,17.81
2019-05-19T08:13:50.876Z,17.68
2019-05-19T08:18:45.452Z,18.43
2019-05-19T08:23:40.045Z,19.18
2019-05-19T08:28:34.630Z,19.24
2019-05-19T08:33:29.261Z,18.61
2019-05-19T08:38:23.913Z,19.04
2019-05-19T08:43:18.520Z,18.92
2019-05-19T08:48:13.095Z,18.70
2019-05-19T08:53:07.833Z,18.94
2019-05-19T08:58:03.008Z,18.93
2019-05-19T09:02:57.601Z,19.00
2019-05-19T09:07:52.182Z,19.02
2019-05-19T09:12:46.772Z,19.35
2019-05-19T09:17:41.344Z,18.81
2019-05-19T09:22:36.031Z,18.21
2019-05-19T09:27:30.671Z,18.27
2019-05-19T09:32:25.277Z,18.53
2019-05-19T09:37:19.926Z,18.46
2019-05-19T09:42:14.542Z,18.45
2019-05-19T09:47:09.186Z,18.83
2019-05-19T09:52:06.574Z,18.74
2019-05-19T09:57:01.212Z,18.78
2019-05-19T10:01:55.867Z,19.36
2019-05-19T10:06:50.529Z,19.82
2019-05-19T10:11:52.779Z,19.56
2019-05-19T10:16:47.357Z,20.02
2019-05-19T10:21:41.961Z,20.12
2019-05-19T10:26:36.529Z,20.24
2019-05-19T10:31:31.122Z,21.13
2019-05-19T10:36:25.702Z,21.27
2019-05-19T10:41:20.308Z,21.68
2019-05-19T10:46:14.885Z,21.50
2019-05-19T10:51:09.752Z,21.60
2019-05-19T10:56:04.462Z,21.58
2019-05-19T11:00:59.093Z,22.06
2019-05-19T11:05:53.757Z,22.25
2019-05-19T11:10:48.361Z,22.02
2019-05-19T11:15:42.942Z,22.23
2019-05-19T11:20:37.536Z,22.70
2019-05-19T11:25:34.288Z,22.97
2019-05-19T11:30:28.541Z,21.52
2019-05-19T11:35:23.117Z,20.46
2019-05-19T11:40:17.783Z,20.83
2019-05-19T11:45:12.583Z,21.39
2019-05-19T11:50:08.327Z,21.07
2019-05-19T11:55:02.918Z,20.31
2019-05-19T11:59:57.565Z,20.35
2019-05-19T12:04:52.144Z,20.25
2019-05-19T12:09:46.750Z,20.67
2019-05-19T12:14:41.331Z,20.30
2019-05-19T12:19:35.928Z,20.37
2019-05-19T12:24:30.503Z,20.69
2019-05-19T12:29:25.101Z,20.77
2019-05-19T12:34:19.681Z,21.51
2019-05-19T12:39:14.283Z,21.98
2019-05-19T12:44:08.846Z,21.91
2019-05-19T12:49:03.453Z,21.27
2019-05-19T12:53:58.032Z,21.35
2019-05-19T12:58:52.653Z,21.49
2019-05-19T13:03:47.282Z,21.96
2019-05-19T13:08:41.908Z,22.24
2019-05-19T13:13:36.494Z,22.37
2019-05-19T13:18:31.087Z,22.45
2019-05-19T13:23:25.673Z,22.08
2019-05-19T13:28:20.272Z,22.08
2019-05-19T13:33:14.877Z,21.96
2019-05-19T13:38:09.478Z,22.00
2019-05-19T13:43:04.141Z,22.14
2019-05-19T13:47:58.742Z,22.32
2019-05-19T13:52:53.326Z,22.58
2019-05-19T13:57:47.916Z,21.97
2019-05-19T14:02:42.492Z,21.60
2019-05-19T14:07:37.085Z,21.73
2019-05-19T14:12:31.715Z,21.56
2019-05-19T14:17:26.369Z,21.53
2019-05-19T14:22:21.018Z,21.52
2019-05-19T14:27:28.923Z,21.67
2019-05-19T14:32:11.927Z,21.91
2019-05-19T14:37:06.528Z,22.08
2019-05-19T14:42:02.873Z,22.19
2019-05-19T14:46:57.471Z,22.40
2019-05-19T14:51:52.043Z,22.18
2019-05-19T14:56:46.656Z,22.27
2019-05-19T15:01:41.237Z,21.97
2019-05-19T15:06:35.906Z,22.18
2019-05-19T15:11:30.489Z,22.38
2019-05-19T15:16:25.108Z,22.33
2019-05-19T15:21:19.690Z,22.49
2019-05-19T15:26:14.293Z,22.67
2019-05-19T15:31:08.867Z,22.59
2019-05-19T15:36:03.480Z,22.96
2019-05-19T15:40:58.087Z,23.02
2019-05-19T15:45:52.760Z,22.94
2019-05-19T15:50:47.355Z,22.95
2019-05-19T15:55:41.948Z,23.46
2019-05-19T16:00:36.545Z,23.96
2019-05-19T16:05:31.140Z,23.52
2019-05-19T16:10:25.733Z,22.98
2019-05-19T16:15:22.003Z,22.68
2019-05-19T16:20:17.036Z,22.33
2019-05-19T16:25:12.445Z,21.84
2019-05-19T16:30:09.984Z,20.56
2019-05-19T16:35:06.761Z,19.26
2019-05-19T16:40:01.349Z,17.81
2019-05-19T16:44:55.944Z,17.46
2019-05-19T16:49:50.537Z,16.94
2019-05-19T16:54:46.770Z,15.47
2019-05-19T16:59:41.361Z,14.89
2019-05-19T17:04:36.036Z,14.72
2019-05-19T17:09:30.631Z,14.77
2019-05-19T17:14:25.303Z,14.77
2019-05-19T17:19:19.895Z,14.88
2019-05-19T17:24:14.493Z,15.03
2019-05-19T17:29:09.079Z,15.10
2019-05-19T17:34:03.742Z,15.35
2019-05-19T17:38:58.349Z,15.33
2019-05-19T17:43:52.941Z,15.43
2019-05-19T17:48:47.535Z,15.60
2019-05-19T17:53:42.666Z,15.59
2019-05-19T17:58:37.739Z,15.42
2019-05-19T18:03:32.570Z,15.19
2019-05-19T18:08:27.239Z,15.24
2019-05-19T18:13:21.925Z,15.17
2019-05-19T18:18:16.500Z,15.21
2019-05-19T18:23:11.093Z,15.18
2019-05-19T18:28:05.685Z,15.04
2019-05-19T18:33:00.294Z,15.02
2019-05-19T18:37:54.880Z,14.94
2019-05-19T18:42:49.478Z,14.93
2019-05-19T18:47:44.931Z,14.93
2019-05-19T18:52:40.292Z,14.93
2019-05-19T18:57:34.981Z,14.76
2019-05-19T19:02:29.728Z,14.60
2019-05-19T19:07:25.938Z,14.55
2019-05-19T19:12:20.543Z,14.70
2019-05-19T19:17:15.124Z,14.56
2019-05-19T19:22:09.724Z,14.51
2019-05-19T19:27:04.434Z,14.49
2019-05-19T19:31:59.017Z,14.49
2019-05-19T19:36:53.586Z,14.55
2019-05-19T19:41:48.972Z,14.64
2019-05-19T19:46:43.552Z,14.63
2019-05-19T19:51:38.144Z,14.68
2019-05-19T19:56:32.999Z,14.72
2019-05-19T20:01:27.592Z,14.72
2019-05-19T20:06:22.168Z,14.77
2019-05-19T20:11:16.775Z,14.71
2019-05-19T20:16:11.357Z,14.71
2019-05-19T20:21:05.944Z,14.74
2019-05-19T20:26:00.531Z,14.77
2019-05-19T20:30:55.130Z,14.73
2019-05-19T20:35:49.712Z,14.67
2019-05-19T20:40:45.090Z,14.69
2019-05-19T20:45:39.678Z,14.68
2019-05-19T20:50:34.288Z,14.67
2019-05-19T20:55:28.863Z,14.82
2019-05-19T21:00:23.616Z,14.73
2019-05-19T21:05:18.273Z,14.60
2019-05-19T21:10:13.570Z,14.52
2019-05-19T21:15:08.381Z,14.38
2019-05-19T21:20:03.962Z,14.26
2019-05-19T21:24:58.620Z,14.17
2019-05-19T21:29:53.251Z,14.16
2019-05-19T21:34:47.871Z,14.12
2019-05-19T21:39:42.499Z,14.17
2019-05-19T21:44:37.072Z,14.11
2019-05-19T21:49:31.668Z,14.03
2019-05-19T21:54:26.304Z,14.07
2019-05-19T21:59:20.909Z,14.13
2019-05-19T22:04:15.498Z,14.11
2019-05-19T22:09:10.220Z,14.04
2019-05-19T22:14:05.006Z,13.99
2019-05-19T22:18:59.614Z,13.89
2019-05-19T22:23:54.186Z,13.86
2019-05-19T22:28:48.802Z,13.93
2019-05-19T22:33:43.395Z,13.92
2019-05-19T22:38:37.993Z,13.90
2019-05-19T22:43:32.570Z,13.98
2019-05-19T22:48:27.212Z,13.86
2019-05-19T22:53:21.837Z,13.80
2019-05-19T22:58:16.437Z,13.77
2019-05-19T23:03:11.023Z,13.78
2019-05-19T23:08:05.636Z,13.75
2019-05-19T23:13:00.217Z,13.75
2019-05-19T23:17:54.889Z,13.71
2019-05-19T23:22:49.458Z,13.69
2019-05-19T23:27:44.075Z,13.69
2019-05-19T23:32:38.635Z,13.74
2019-05-19T23:37:33.283Z,13.71
2019-05-19T23:42:27.879Z,13.77
2019-05-19T23:47:22.475Z,13.87
2019-05-19T23:52:17.059Z,13.67
2019-05-19T23:57:11.652Z,13.60
